createdAt,value
2018-09-23T00:00:06.123Z,0
2018-09-23T00:01:06.398Z,0
2018-09-23T00:02:06.328Z,0
2018-09-23T00:03:06.397Z,0
2018-09-23T00:04:06.558Z,0
2018-09-23T00:05:06.542Z,0
2018-09-23T00:06:06.595Z,0
2018-09-23T00:07:06.574Z,0
2018-09-23T00:08:06.782Z,0
2018-09-23T00:09:06.748Z,0
2018-09-23T00:10:07.853Z,0
2018-09-23T00:11:06.846Z,0
2018-09-23T00:12:07.818Z,0
2018-09-23T00:13:06.906Z,0
2018-09-23T00:14:07.086Z,0
2018-09-23T00:15:07.029Z,0
2018-09-23T00:16:07.137Z,0
2018-09-23T00:17:07.237Z,0
2018-09-23T00:18:07.270Z,0
2018-09-23T00:19:07.536Z,0
2018-09-23T00:20:07.481Z,0
2018-09-23T00:21:07.608Z,0
2018-09-23T00:22:07.685Z,0
2018-09-23T00:23:07.634Z,0
2018-09-23T00:24:07.790Z,0
2018-09-23T00:25:07.823Z,0
2018-09-23T00:26:08.021Z,0
2018-09-23T00:27:07.958Z,0
2018-09-23T00:28:08.181Z,0
2018-09-23T00:29:08.172Z,0
2018-09-23T00:30:08.173Z,0
2018-09-23T00:31:08.135Z,0
2018-09-23T00:32:08.182Z,0
2018-09-23T00:33:08.294Z,0
2018-09-23T00:34:08.470Z,0
2018-09-23T00:35:08.524Z,0
2018-09-23T00:36:08.520Z,0
2018-09-23T00:37:08.616Z,0
2018-09-23T00:38:08.647Z,0
2018-09-23T00:39:08.834Z,0
2018-09-23T00:40:08.730Z,0
2018-09-23T00:41:08.792Z,0
2018-09-23T00:42:08.915Z,0
2018-09-23T00:43:09.048Z,0
2018-09-23T00:44:09.073Z,0
2018-09-23T00:45:09.031Z,0
2018-09-23T00:46:09.238Z,0
2018-09-23T00:47:09.240Z,0
2018-09-23T00:48:09.334Z,0
2018-09-23T00:49:09.449Z,0
2018-09-23T00:50:09.566Z,0
2018-09-23T00:51:09.549Z,0
2018-09-23T00:52:09.666Z,0
2018-09-23T00:53:09.781Z,0
2018-09-23T00:54:09.903Z,0
2018-09-23T00:55:10.038Z,0
2018-09-23T00:56:10.105Z,0
2018-09-23T00:57:10.234Z,0
2018-09-23T00:58:10.325Z,0
2018-09-23T00:59:10.417Z,0
2018-09-23T01:00:10.512Z,0
2018-09-23T01:01:10.601Z,0
2018-09-23T01:02:10.742Z,0
2018-09-23T01:03:10.779Z,0
2018-09-23T01:04:10.966Z,0
2018-09-23T01:05:10.979Z,0
2018-09-23T01:06:10.933Z,0
2018-09-23T01:07:11.054Z,0
2018-09-23T01:08:11.053Z,0
2018-09-23T01:09:11.112Z,0
2018-09-23T01:10:11.271Z,0
2018-09-23T01:11:11.299Z,0
2018-09-23T01:12:11.291Z,0
2018-09-23T01:13:11.488Z,0
2018-09-23T01:14:11.439Z,0
2018-09-23T01:15:11.599Z,0
2018-09-23T01:16:11.649Z,0
2018-09-23T01:17:11.609Z,0
2018-09-23T01:18:11.716Z,0
2018-09-23T01:19:11.730Z,0
2018-09-23T01:20:11.980Z,0
2018-09-23T01:21:11.911Z,0
2018-09-23T01:22:12.055Z,0
2018-09-23T01:23:12.201Z,0
2018-09-23T01:24:12.357Z,0
2018-09-23T01:25:12.500Z,0
2018-09-23T01:26:12.791Z,0
2018-09-23T01:27:13.763Z,0
2018-09-23T01:28:12.872Z,0
2018-09-23T01:29:12.911Z,0
2018-09-23T01:30:13.029Z,0
2018-09-23T01:31:13.020Z,0
2018-09-23T01:32:13.149Z,0
2018-09-23T01:33:13.310Z,0
2018-09-23T01:34:13.301Z,0
2018-09-23T01:35:13.488Z,0
2018-09-23T01:36:13.536Z,0
2018-09-23T01:37:13.514Z,0
2018-09-23T01:38:13.748Z,0
2018-09-23T01:39:13.691Z,0
2018-09-23T01:40:13.737Z,0
2018-09-23T01:41:13.943Z,0
2018-09-23T01:42:13.908Z,0
2018-09-23T01:43:13.962Z,0
2018-09-23T01:44:14.118Z,0
2018-09-23T01:45:14.368Z,0
2018-09-23T01:46:14.396Z,0
2018-09-23T01:47:14.495Z,0
2018-09-23T01:48:14.640Z,0
2018-09-23T01:49:14.675Z,0
2018-09-23T01:50:14.717Z,0
2018-09-23T01:51:14.755Z,0
2018-09-23T01:52:14.841Z,0
2018-09-23T01:53:15.033Z,0
2018-09-23T01:54:14.977Z,0
2018-09-23T01:55:15.192Z,0
2018-09-23T01:56:15.163Z,0
2018-09-23T01:57:15.410Z,0
2018-09-23T01:58:15.378Z,0
2018-09-23T01:59:15.400Z,0
2018-09-23T02:00:15.593Z,0
2018-09-23T02:01:15.660Z,0
2018-09-23T02:02:15.681Z,0
2018-09-23T02:03:15.781Z,0
2018-09-23T02:04:15.836Z,0
2018-09-23T02:05:15.965Z,0
2018-09-23T02:06:16.027Z,0
2018-09-23T02:07:16.115Z,0
2018-09-23T02:08:16.079Z,0
2018-09-23T02:09:16.225Z,0
2018-09-23T02:10:16.292Z,0
2018-09-23T02:11:16.402Z,0
2018-09-23T02:12:16.546Z,0
2018-09-23T02:13:16.495Z,0
2018-09-23T02:14:16.654Z,0
2018-09-23T02:15:16.780Z,0
2018-09-23T02:16:17.045Z,0
2018-09-23T02:17:17.066Z,0
2018-09-23T02:18:17.111Z,0
2018-09-23T02:19:17.243Z,0
2018-09-23T02:20:17.237Z,0
2018-09-23T02:21:17.248Z,0
2018-09-23T02:22:17.348Z,0
2018-09-23T02:23:17.360Z,0
2018-09-23T02:24:17.309Z,0
2018-09-23T02:25:17.436Z,0
2018-09-23T02:26:17.543Z,0
2018-09-23T02:27:17.837Z,0
2018-09-23T02:28:17.798Z,0
2018-09-23T02:29:17.871Z,0
2018-09-23T02:30:17.912Z,0
2018-09-23T02:31:18.162Z,0
2018-09-23T02:32:18.209Z,0
2018-09-23T02:33:18.260Z,0
2018-09-23T02:34:18.378Z,0
2018-09-23T02:35:18.501Z,0
2018-09-23T02:36:18.635Z,0
2018-09-23T02:37:19.780Z,0
2018-09-23T02:38:19.864Z,0
2018-09-23T02:39:19.019Z,0
2018-09-23T02:40:19.167Z,0
2018-09-23T02:41:19.274Z,0
2018-09-23T02:42:19.303Z,0
2018-09-23T02:43:19.262Z,0
2018-09-23T02:44:19.408Z,0
2018-09-23T02:45:19.457Z,0
2018-09-23T02:46:19.538Z,0
2018-09-23T02:47:19.704Z,0
2018-09-23T02:48:19.972Z,0
2018-09-23T02:49:19.958Z,0
2018-09-23T02:50:20.105Z,0
2018-09-23T02:51:20.195Z,0
2018-09-23T02:52:20.353Z,0
2018-09-23T02:53:20.314Z,0
2018-09-23T02:54:20.356Z,0
2018-09-23T02:56:20.536Z,0
2018-09-23T02:57:21.487Z,0
2018-09-23T02:58:20.595Z,0
2018-09-23T02:59:20.759Z,0
2018-09-23T03:00:20.717Z,0
2018-09-23T03:01:20.775Z,0
2018-09-23T03:02:20.832Z,0
2018-09-23T03:03:21.044Z,0
2018-09-23T03:04:21.053Z,0
2018-09-23T03:05:21.075Z,0
2018-09-23T03:06:21.113Z,0
2018-09-23T03:07:21.376Z,0
2018-09-23T03:08:21.391Z,0
2018-09-23T03:09:21.522Z,0
2018-09-23T03:10:21.626Z,0
2018-09-23T03:11:21.776Z,0
2018-09-23T03:12:21.827Z,0
2018-09-23T03:13:21.839Z,0
2018-09-23T03:14:21.933Z,0
2018-09-23T03:15:22.138Z,0
2018-09-23T03:17:22.130Z,0
2018-09-23T03:18:22.232Z,0
2018-09-23T03:19:22.260Z,0
2018-09-23T03:20:22.221Z,0
2018-09-23T03:21:23.326Z,0
2018-09-23T03:22:22.448Z,0
2018-09-23T03:23:22.377Z,0
2018-09-23T03:24:22.532Z,0
2018-09-23T03:25:22.660Z,0
2018-09-23T03:26:22.915Z,0
2018-09-23T03:27:22.879Z,0
2018-09-23T03:28:22.938Z,0
2018-09-23T03:29:23.092Z,0
2018-09-23T03:30:23.216Z,0
2018-09-23T03:31:23.183Z,0
2018-09-23T03:32:23.242Z,0
2018-09-23T03:33:23.354Z,0
2018-09-23T03:34:23.488Z,0
2018-09-23T03:35:23.678Z,0
2018-09-23T03:36:23.646Z,0
2018-09-23T03:37:23.818Z,0
2018-09-23T03:38:23.947Z,0
2018-09-23T03:39:24.123Z,0
2018-09-23T03:40:24.277Z,0
2018-09-23T03:41:24.260Z,0
2018-09-23T03:42:24.386Z,0
2018-09-23T03:43:24.542Z,0
2018-09-23T03:44:24.558Z,0
2018-09-23T03:45:25.777Z,0
2018-09-23T03:46:24.683Z,0
2018-09-23T03:47:25.430Z,0
2018-09-23T03:48:24.859Z,0
2018-09-23T03:49:24.990Z,0
2018-09-23T03:50:25.161Z,0
2018-09-23T03:51:25.456Z,0
2018-09-23T03:52:25.360Z,0
2018-09-23T03:53:25.501Z,0
2018-09-23T03:54:25.598Z,0
2018-09-23T03:55:25.677Z,0
2018-09-23T03:57:25.906Z,0
2018-09-23T03:58:26.050Z,0
2018-09-23T03:59:26.127Z,0
2018-09-23T04:00:26.234Z,0
2018-09-23T04:01:26.409Z,0
2018-09-23T04:02:26.505Z,0
2018-09-23T04:03:26.635Z,0
2018-09-23T04:04:26.736Z,0
2018-09-23T04:05:26.831Z,0
2018-09-23T04:06:26.980Z,0
2018-09-23T04:07:26.958Z,0
2018-09-23T04:08:27.098Z,0
2018-09-23T04:09:27.207Z,0
2018-09-23T04:10:27.332Z,0
2018-09-23T04:11:27.532Z,0
2018-09-23T04:12:27.479Z,0
2018-09-23T04:13:27.488Z,0
2018-09-23T04:14:27.563Z,0
2018-09-23T04:15:27.668Z,0
2018-09-23T04:16:27.714Z,0
2018-09-23T04:17:27.756Z,0
2018-09-23T04:18:27.865Z,0
2018-09-23T04:19:27.968Z,0
2018-09-23T04:20:27.991Z,0
2018-09-23T04:21:28.093Z,0
2018-09-23T04:23:28.209Z,0
2018-09-23T04:24:28.252Z,0
2018-09-23T04:25:28.355Z,0
2018-09-23T04:26:28.464Z,0
2018-09-23T04:27:28.620Z,0
2018-09-23T04:28:28.632Z,0
2018-09-23T04:30:46.693Z,0
2018-09-23T04:31:28.950Z,0
2018-09-23T04:32:28.907Z,0
2018-09-23T04:33:28.943Z,0
2018-09-23T04:34:28.971Z,0
2018-09-23T04:35:29.153Z,0
2018-09-23T04:36:29.250Z,0
2018-09-23T04:37:29.226Z,0
2018-09-23T04:38:29.376Z,0
2018-09-23T04:39:29.339Z,0
2018-09-23T04:40:29.392Z,0
2018-09-23T04:41:29.482Z,0
2018-09-23T04:42:29.635Z,0
2018-09-23T04:43:29.629Z,0
2018-09-23T04:44:29.736Z,1
2018-09-23T04:45:29.864Z,1
2018-09-23T04:46:30.082Z,1
2018-09-23T04:47:30.049Z,0
2018-09-23T04:48:30.196Z,1
2018-09-23T04:49:30.200Z,1
2018-09-23T04:50:30.383Z,1
2018-09-23T04:51:30.402Z,2
2018-09-23T04:52:30.412Z,2
2018-09-23T04:53:30.737Z,1
2018-09-23T04:54:30.594Z,3
2018-09-23T04:55:30.725Z,3
2018-09-23T04:56:30.869Z,3
2018-09-23T04:57:30.961Z,4
2018-09-23T04:58:31.008Z,4
2018-09-23T04:59:31.023Z,5
2018-09-23T05:00:31.092Z,6
2018-09-23T05:01:31.303Z,8
2018-09-23T05:02:31.129Z,9
2018-09-23T05:03:31.293Z,12
2018-09-23T05:04:31.441Z,15
2018-09-23T05:05:31.307Z,19
2018-09-23T05:06:31.451Z,22
2018-09-23T05:07:31.554Z,26
2018-09-23T05:08:31.633Z,29
2018-09-23T05:09:31.748Z,33
2018-09-23T05:10:31.800Z,40
2018-09-23T05:11:31.880Z,46
2018-09-23T05:12:31.921Z,50
2018-09-23T05:13:32.003Z,56
2018-09-23T05:15:32.095Z,59
2018-09-23T05:16:32.142Z,65
2018-09-23T05:17:32.303Z,71
2018-09-23T05:18:32.231Z,80
2018-09-23T05:19:32.316Z,88
2018-09-23T05:20:32.368Z,94
2018-09-23T05:21:32.557Z,100
2018-09-23T05:22:32.593Z,106
2018-09-23T05:23:32.661Z,114
2018-09-23T05:24:32.790Z,124
2018-09-23T05:25:32.685Z,134
2018-09-23T05:26:32.844Z,145
2018-09-23T05:27:32.870Z,154
2018-09-23T05:28:32.920Z,168
2018-09-23T05:29:32.977Z,174
2018-09-23T05:30:33.030Z,177
2018-09-23T05:31:33.053Z,178
2018-09-23T05:32:33.247Z,187
2018-09-23T05:33:33.117Z,187
2018-09-23T05:35:33.260Z,201
2018-09-23T05:36:33.302Z,208
2018-09-23T05:37:33.384Z,219
2018-09-23T05:38:33.410Z,227
2018-09-23T05:39:33.471Z,227
2018-09-23T05:40:33.520Z,231
2018-09-23T05:41:33.643Z,240
2018-09-23T05:42:33.786Z,248
2018-09-23T05:43:33.835Z,265
2018-09-23T05:44:33.940Z,282
2018-09-23T05:45:33.911Z,296
2018-09-23T05:46:34.009Z,300
2018-09-23T05:47:34.040Z,298
2018-09-23T05:49:35.471Z,300
2018-09-23T05:50:34.315Z,309
2018-09-23T05:51:34.394Z,303
2018-09-23T05:52:34.391Z,307
2018-09-23T05:53:34.469Z,318
2018-09-23T05:54:34.684Z,320
2018-09-23T05:55:34.560Z,327
2018-09-23T05:56:34.783Z,355
2018-09-23T05:57:34.876Z,362
2018-09-23T05:58:34.911Z,364
2018-09-23T06:01:15.849Z,369
2018-09-23T06:02:31.919Z,359
2018-09-23T06:03:31.956Z,365
2018-09-23T06:05:28.800Z,372
2018-09-23T06:06:28.774Z,374
2018-09-23T06:29:39.737Z,571
2018-09-23T06:30:39.810Z,528
2018-09-23T06:31:39.897Z,546
2018-09-23T06:32:40.011Z,590
2018-09-23T06:33:40.058Z,555
2018-09-23T06:34:40.204Z,567
2018-09-23T06:35:40.187Z,594
2018-09-23T06:36:40.310Z,582
2018-09-23T06:37:40.425Z,591
2018-09-23T06:38:40.614Z,558
2018-09-23T06:39:40.513Z,556
2018-09-23T06:40:40.609Z,531
2018-09-23T06:41:40.793Z,516
2018-09-23T06:42:40.807Z,498
2018-09-23T06:43:40.845Z,484
2018-09-23T06:44:40.843Z,478
2018-09-23T06:45:41.002Z,504
2018-09-23T06:46:41.047Z,538
2018-09-23T06:47:41.147Z,590
2018-09-23T06:48:41.233Z,589
2018-09-23T06:49:41.465Z,628
2018-09-23T06:50:41.375Z,647
2018-09-23T06:51:41.472Z,650
2018-09-23T06:52:41.514Z,624
2018-09-23T06:53:41.711Z,627
2018-09-23T06:54:41.607Z,626
2018-09-23T06:55:41.734Z,582
2018-09-23T06:57:38.377Z,595
2018-09-23T06:58:38.760Z,630
2018-09-23T06:59:38.520Z,644
2018-09-23T07:00:38.613Z,651
2018-09-23T07:01:38.821Z,645
2018-09-23T07:02:38.684Z,653
2018-09-23T07:26:02.186Z,1085
2018-09-23T07:27:02.155Z,1081
2018-09-23T07:28:02.394Z,1050
2018-09-23T07:29:02.407Z,1037
2018-09-23T07:30:02.524Z,1013
2018-09-23T07:31:02.539Z,1009
2018-09-23T07:32:02.699Z,1014
2018-09-23T07:33:02.707Z,1019
2018-09-23T07:34:02.713Z,1015
2018-09-23T07:35:02.847Z,1060
2018-09-23T07:36:02.823Z,1077
2018-09-23T07:37:03.976Z,1077
2018-09-23T07:38:03.034Z,1107
2018-09-23T07:39:03.134Z,1150
2018-09-23T07:40:03.355Z,1173
2018-09-23T07:41:03.526Z,1170
2018-09-23T07:42:03.455Z,1209
2018-09-23T07:43:03.573Z,1316
2018-09-23T07:44:03.672Z,1488
2018-09-23T07:45:03.895Z,1539
2018-09-23T07:46:03.838Z,1583
2018-09-23T07:47:03.953Z,1634
2018-09-23T07:48:04.197Z,1709
2018-09-23T07:49:04.316Z,1611
2018-09-23T07:50:04.307Z,1454
2018-09-23T07:51:04.320Z,1488
2018-09-23T07:52:04.366Z,1482
2018-09-23T07:54:04.584Z,1173
2018-09-23T07:55:04.765Z,1112
2018-09-23T07:56:05.423Z,1079
2018-09-23T07:57:04.925Z,1037
2018-09-23T07:58:04.872Z,1015
2018-09-23T07:59:04.886Z,1021
2018-09-23T08:00:05.132Z,1016
2018-09-23T08:01:05.253Z,1030
2018-09-23T08:02:05.120Z,1049
2018-09-23T08:03:05.316Z,1061
2018-09-23T08:04:05.397Z,1078
2018-09-23T08:05:05.451Z,1083
2018-09-23T08:06:05.515Z,1110
2018-09-23T08:07:05.667Z,1146
2018-09-23T08:08:05.873Z,1178
2018-09-23T08:09:05.928Z,1248
2018-09-23T08:10:06.114Z,1355
2018-09-23T08:11:06.170Z,1357
2018-09-23T08:12:06.439Z,1341
2018-09-23T08:13:06.670Z,1344
2018-09-23T08:14:07.025Z,1377
2018-09-23T08:15:07.804Z,1391
2018-09-23T08:16:06.944Z,1454
2018-09-23T08:17:07.010Z,1507
2018-09-23T08:18:06.993Z,1542
2018-09-23T08:19:07.157Z,1624
2018-09-23T08:20:07.240Z,1625
2018-09-23T08:21:07.297Z,1633
2018-09-23T08:22:07.391Z,1884
2018-09-23T08:23:07.568Z,2012
2018-09-23T08:24:07.686Z,2127
2018-09-23T08:25:07.683Z,2474
2018-09-23T08:26:07.902Z,2785
2018-09-23T08:27:07.736Z,3166
2018-09-23T08:28:07.930Z,1827
2018-09-23T08:29:08.096Z,1766
2018-09-23T08:30:08.108Z,1672
2018-09-23T08:31:08.226Z,1605
2018-09-23T08:32:08.339Z,1611
2018-09-23T08:33:08.403Z,1637
2018-09-23T08:34:08.562Z,1607
2018-09-23T08:35:08.569Z,1613
2018-09-23T08:36:08.592Z,1668
2018-09-23T08:37:08.722Z,1838
2018-09-23T08:38:08.725Z,2077
2018-09-23T08:39:08.703Z,2191
2018-09-23T08:40:08.876Z,2532
2018-09-23T08:41:08.950Z,2508
2018-09-23T08:42:08.881Z,2618
2018-09-23T08:43:08.907Z,2635
2018-09-23T08:44:09.047Z,2584
2018-09-23T08:45:09.033Z,2720
2018-09-23T08:46:09.079Z,3273
2018-09-23T08:47:09.162Z,3562
2018-09-23T08:48:09.339Z,3036
2018-09-23T08:49:09.333Z,2587
2018-09-23T08:50:09.398Z,2605
2018-09-23T08:51:09.540Z,2882
2018-09-23T08:52:09.567Z,3087
2018-09-23T08:53:09.653Z,3293
2018-09-23T08:54:09.770Z,3909
2018-09-23T08:55:09.842Z,3860
2018-09-23T08:56:09.897Z,2975
2018-09-23T08:57:09.969Z,2610
2018-09-23T08:58:10.086Z,2541
2018-09-23T08:59:10.255Z,2704
2018-09-23T09:00:10.271Z,2677
2018-09-23T09:01:11.455Z,2678
2018-09-23T09:02:10.566Z,2637
2018-09-23T09:04:51.208Z,2488
2018-09-23T09:05:07.252Z,2253
2018-09-23T09:06:07.370Z,2390
2018-09-23T09:07:07.505Z,2652
2018-09-23T09:08:07.532Z,2499
2018-09-23T09:09:07.620Z,2571
2018-09-23T09:10:07.739Z,2531
2018-09-23T09:33:42.846Z,2481
2018-09-23T09:34:24.951Z,2599
2018-09-23T09:35:25.122Z,2880
2018-09-23T09:36:25.210Z,3084
2018-09-23T09:37:25.246Z,3771
2018-09-23T09:38:25.383Z,4030
2018-09-23T09:39:25.325Z,4296
2018-09-23T09:40:25.737Z,6194
2018-09-23T09:41:25.441Z,3581
2018-09-23T09:42:25.600Z,3272
2018-09-23T09:43:25.585Z,3051
2018-09-23T09:44:25.614Z,2905
2018-09-23T09:45:25.676Z,3479
2018-09-23T09:46:25.929Z,3732
2018-09-23T09:47:25.974Z,3520
2018-09-23T09:48:26.075Z,3519
2018-09-23T09:49:26.098Z,3275
2018-09-23T09:50:26.315Z,3265
2018-09-23T09:52:22.802Z,3642
2018-09-23T09:53:22.936Z,3610
2018-09-23T09:54:22.982Z,3769
2018-09-23T09:55:23.801Z,3284
2018-09-23T09:56:22.999Z,3284
2018-09-23T09:57:23.034Z,3460
2018-09-23T09:58:23.257Z,4477
2018-09-23T09:59:23.248Z,4641
2018-09-23T10:00:23.388Z,4304
2018-09-23T10:01:23.388Z,4974
2018-09-23T10:04:01.858Z,6170
2018-09-23T10:04:54.768Z,7351
2018-09-23T10:05:54.938Z,7104
2018-09-23T10:06:54.955Z,6186
2018-09-23T10:07:55.110Z,6400
2018-09-23T10:08:55.045Z,6410
2018-09-23T10:22:12.270Z,6743
2018-09-23T10:23:12.459Z,5798
2018-09-23T10:24:12.506Z,5239
2018-09-23T10:26:27.230Z,5074
2018-09-23T10:27:27.342Z,5562
2018-09-23T10:28:27.550Z,5438
2018-09-23T10:29:27.704Z,9034
2018-09-23T10:30:27.625Z,6483
2018-09-23T10:31:27.881Z,5554
2018-09-23T10:32:27.819Z,6827
2018-09-23T10:33:27.885Z,7519
2018-09-23T10:34:28.010Z,6742
2018-09-23T10:35:28.041Z,6947
2018-09-23T10:36:28.141Z,7111
2018-09-23T10:37:28.346Z,7840
2018-09-23T10:38:28.348Z,7348
2018-09-23T10:39:28.401Z,7260
2018-09-23T10:40:28.537Z,7181
2018-09-23T10:41:28.763Z,7179
2018-09-23T10:42:28.650Z,8271
2018-09-23T10:43:28.760Z,6597
2018-09-23T10:44:28.871Z,7765
2018-09-23T10:45:28.965Z,8571
2018-09-23T10:46:29.020Z,7898
2018-09-23T10:47:29.068Z,8063
2018-09-23T10:48:29.247Z,6087
2018-09-23T10:49:29.330Z,6467
2018-09-23T10:50:29.425Z,7693
2018-09-23T10:51:29.510Z,5341
2018-09-23T10:52:29.555Z,5731
2018-09-23T10:53:29.717Z,5414
2018-09-23T10:54:29.790Z,6021
2018-09-23T10:55:29.823Z,4519
2018-09-23T10:56:29.840Z,4190
2018-09-23T10:57:29.812Z,5966
2018-09-23T10:58:29.868Z,3739
2018-09-23T10:59:29.977Z,3277
2018-09-23T11:00:30.097Z,2689
2018-09-23T11:02:30.097Z,2753
2018-09-23T11:04:30.428Z,2398
2018-09-23T11:05:30.468Z,2460
2018-09-23T11:06:30.731Z,2353
2018-09-23T11:07:30.809Z,2203
2018-09-23T11:08:30.725Z,2503
2018-09-23T11:09:30.892Z,2852
2018-09-23T11:10:31.147Z,4214
2018-09-23T11:11:31.117Z,5187
2018-09-23T11:12:31.120Z,4625
2018-09-23T11:13:31.211Z,3214
2018-09-23T11:14:31.175Z,3012
2018-09-23T11:15:32.259Z,3078
2018-09-23T11:16:31.341Z,3136
2018-09-23T11:17:31.426Z,2913
2018-09-23T11:18:31.479Z,3472
2018-09-23T11:20:31.707Z,3836
2018-09-23T11:21:31.757Z,3853
2018-09-23T11:23:31.909Z,3306
2018-09-23T11:24:31.979Z,3225
2018-09-23T11:25:33.064Z,3014
2018-09-23T11:26:32.171Z,3176
2018-09-23T11:27:32.284Z,2716
2018-09-23T11:28:32.341Z,2532
2018-09-23T11:29:32.391Z,2428
2018-09-23T11:30:32.609Z,2491
2018-09-23T11:31:32.630Z,2524
2018-09-23T11:32:32.790Z,2431
2018-09-23T11:33:32.721Z,2444
2018-09-23T11:34:32.800Z,2637
2018-09-23T11:35:32.888Z,3131
2018-09-23T11:36:33.052Z,3561
2018-09-23T11:37:33.068Z,4334
2018-09-23T11:38:33.308Z,3929
2018-09-23T11:39:33.202Z,3408
2018-09-23T11:40:33.372Z,3995
2018-09-23T11:41:33.407Z,5262
2018-09-23T11:42:33.551Z,5001
2018-09-23T11:45:53.459Z,4099
2018-09-23T11:46:53.421Z,3282
2018-09-23T11:48:50.579Z,2867
2018-09-23T11:50:08.552Z,2671
2018-09-23T11:50:50.707Z,2478
2018-09-23T11:51:50.818Z,2566
2018-09-23T11:52:50.791Z,2778
2018-09-23T11:53:50.861Z,2549
2018-09-23T11:54:51.210Z,2476
2018-09-23T11:55:51.154Z,2490
2018-09-23T11:58:14.349Z,2721
2018-09-23T12:17:08.849Z,3195
2018-09-23T12:18:09.035Z,3263
2018-09-23T12:19:09.128Z,3932
2018-09-23T12:20:09.246Z,5410
2018-09-23T12:21:09.215Z,4671
2018-09-23T12:22:09.348Z,5649
2018-09-23T12:23:09.524Z,5635
2018-09-23T12:24:09.417Z,4622
2018-09-23T12:25:09.505Z,4459
2018-09-23T12:26:09.723Z,4297
2018-09-23T12:27:09.877Z,4555
2018-09-23T12:28:09.971Z,4178
2018-09-23T12:29:10.021Z,5637
2018-09-23T12:30:10.132Z,4565
2018-09-23T12:31:10.343Z,4140
2018-09-23T12:32:10.247Z,3997
2018-09-23T12:33:10.414Z,4527
2018-09-23T12:34:10.385Z,4701
2018-09-23T12:35:10.508Z,4226
2018-09-23T12:36:10.550Z,4213
2018-09-23T12:37:10.649Z,4078
2018-09-23T12:38:10.844Z,3926
2018-09-23T12:39:10.932Z,3700
2018-09-23T12:40:11.168Z,3709
2018-09-23T12:41:11.192Z,3613
2018-09-23T12:42:11.270Z,3574
2018-09-23T12:43:11.419Z,3465
2018-09-23T12:46:30.132Z,3602
2018-09-23T12:47:12.254Z,3692
2018-09-23T12:48:12.503Z,3680
2018-09-23T12:49:12.593Z,3881
2018-09-23T12:50:12.705Z,3804
2018-09-23T12:51:12.939Z,3493
2018-09-23T12:52:12.815Z,3251
2018-09-23T12:53:13.017Z,3193
2018-09-23T12:54:13.044Z,3040
2018-09-23T12:55:13.160Z,2970
2018-09-23T12:56:13.234Z,3093
2018-09-23T12:57:13.406Z,3187
2018-09-23T12:58:13.462Z,3241
2018-09-23T12:59:13.413Z,3338
2018-09-23T13:00:13.553Z,3464
2018-09-23T13:01:31.531Z,3604
2018-09-23T13:02:13.750Z,3513
2018-09-23T13:03:13.897Z,3355
2018-09-23T13:04:14.001Z,3664
2018-09-23T13:05:14.031Z,3671
2018-09-23T13:07:14.241Z,3774
2018-09-23T13:08:14.479Z,3769
2018-09-23T13:10:14.488Z,3923
2018-09-23T13:11:14.586Z,4010
2018-09-23T13:12:14.747Z,3988
2018-09-23T13:13:14.738Z,3851
2018-09-23T13:14:14.735Z,3903
2018-09-23T13:15:14.865Z,3937
2018-09-23T13:16:14.999Z,3976
2018-09-23T13:17:14.915Z,4302
2018-09-23T13:18:15.192Z,4446
2018-09-23T13:19:15.099Z,4212
2018-09-23T13:20:15.187Z,4297
2018-09-23T13:21:15.286Z,4305
2018-09-23T13:22:15.259Z,4291
2018-09-23T13:23:15.395Z,4372
2018-09-23T13:24:15.473Z,4380
2018-09-23T13:25:15.480Z,4403
2018-09-23T13:26:15.606Z,4397
2018-09-23T13:27:15.876Z,4469
2018-09-23T13:28:15.815Z,4561
2018-09-23T13:29:15.798Z,4476
2018-09-23T13:30:15.890Z,5160
2018-09-23T13:31:15.938Z,6415
2018-09-23T13:32:16.053Z,6810
2018-09-23T13:33:16.166Z,7199
2018-09-23T13:35:16.276Z,5169
2018-09-23T13:36:16.401Z,5483
2018-09-23T13:37:16.405Z,5341
2018-09-23T13:38:16.508Z,5262
2018-09-23T13:39:16.502Z,4614
2018-09-23T13:40:16.759Z,4208
2018-09-23T13:41:17.625Z,4023
2018-09-23T13:42:16.763Z,4015
2018-09-23T13:43:16.865Z,3934
2018-09-23T13:44:17.218Z,3937
2018-09-23T13:45:17.187Z,4063
2018-09-23T13:46:17.255Z,4302
2018-09-23T13:48:17.481Z,4596
2018-09-23T13:49:17.435Z,4624
2018-09-23T13:50:17.508Z,4575
2018-09-23T13:51:17.691Z,4542
2018-09-23T13:52:17.712Z,4516
2018-09-23T13:53:17.739Z,4593
2018-09-23T13:54:17.908Z,4614
2018-09-23T13:55:18.110Z,4561
2018-09-23T13:56:17.930Z,4495
2018-09-23T13:57:18.006Z,4526
2018-09-23T13:58:18.036Z,5328
2018-09-23T13:59:18.196Z,6389
2018-09-23T14:00:18.315Z,6534
2018-09-23T14:01:18.449Z,5526
2018-09-23T14:02:18.469Z,5020
2018-09-23T14:03:18.528Z,5950
2018-09-23T14:04:18.648Z,8801
2018-09-23T14:05:18.825Z,7513
2018-09-23T14:06:18.857Z,7828
2018-09-23T14:08:18.983Z,7096
2018-09-23T14:09:19.095Z,7693
2018-09-23T14:10:19.229Z,7642
2018-09-23T14:11:19.179Z,7687
2018-09-23T14:12:19.369Z,7863
2018-09-23T14:13:19.349Z,7849
2018-09-23T14:14:19.522Z,8180
2018-09-23T14:15:19.435Z,6273
2018-09-23T14:16:19.598Z,9529
2018-09-23T14:17:19.749Z,10626
2018-09-23T14:18:19.614Z,14122
2018-09-23T14:19:19.668Z,9834
2018-09-23T14:21:19.970Z,7682
2018-09-23T14:22:19.825Z,6866
2018-09-23T14:23:19.917Z,9551
2018-09-23T14:24:20.005Z,7693
2018-09-23T14:25:20.067Z,8094
2018-09-23T14:26:20.238Z,7726
2018-09-23T14:27:20.296Z,8916
2018-09-23T14:28:20.376Z,7962
2018-09-23T14:29:20.442Z,7111
2018-09-23T14:30:20.521Z,7046
2018-09-23T14:31:20.572Z,7018
2018-09-23T14:32:20.676Z,7051
2018-09-23T14:33:19.724Z,7033
2018-09-23T14:34:20.844Z,7358
2018-09-23T14:35:20.850Z,8127
2018-09-23T14:36:21.069Z,8470
2018-09-23T14:37:21.169Z,11894
2018-09-23T14:38:21.222Z,26976
2018-09-23T14:39:21.250Z,50464
2018-09-23T14:40:21.266Z,65535
2018-09-23T14:41:21.411Z,65535
2018-09-23T14:42:21.538Z,65535
2018-09-23T14:43:21.591Z,65535
2018-09-23T14:45:36.262Z,42984
2018-09-23T14:46:18.389Z,12764
2018-09-23T14:47:18.429Z,9830
2018-09-23T14:48:18.405Z,7024
2018-09-23T14:49:18.543Z,11942
2018-09-23T14:50:18.653Z,7816
2018-09-23T14:51:18.756Z,5753
2018-09-23T14:52:18.765Z,4432
2018-09-23T14:53:18.916Z,4725
2018-09-23T14:54:18.913Z,4182
2018-09-23T14:56:19.048Z,2963
2018-09-23T14:57:19.233Z,2805
2018-09-23T15:00:03.069Z,2597
2018-09-23T15:00:16.493Z,2703
2018-09-23T15:02:13.295Z,5374
2018-09-23T15:03:13.485Z,6833
2018-09-23T15:04:13.533Z,8856
2018-09-23T15:13:41.466Z,65535
2018-09-23T15:14:42.317Z,65535
2018-09-23T15:16:42.435Z,65535
2018-09-23T15:17:42.667Z,65535
2018-09-23T15:18:42.600Z,65535
2018-09-23T15:19:42.765Z,65535
2018-09-23T15:28:23.781Z,65535
2018-09-23T15:29:24.041Z,65535
2018-09-23T15:30:24.261Z,65535
2018-09-23T15:31:24.248Z,65535
2018-09-23T15:32:24.257Z,65535
2018-09-23T15:33:24.324Z,65535
2018-09-23T15:34:24.568Z,65535
2018-09-23T15:35:24.553Z,65535
2018-09-23T15:36:24.588Z,65535
2018-09-23T15:37:24.668Z,65535
2018-09-23T15:38:24.757Z,65535
2018-09-23T15:39:24.969Z,6737
2018-09-23T15:40:24.899Z,65535
2018-09-23T15:41:25.132Z,65535
2018-09-23T15:42:26.102Z,65535
2018-09-23T15:43:25.246Z,65535
2018-09-23T15:44:25.265Z,65535
2018-09-23T15:45:25.315Z,65535
2018-09-23T15:46:25.391Z,42664
2018-09-23T15:49:57.994Z,35528
2018-09-23T15:50:40.165Z,65535
2018-09-23T15:51:40.269Z,65535
2018-09-23T15:52:40.603Z,65535
2018-09-23T15:53:40.367Z,65535
2018-09-23T15:54:40.865Z,65535
2018-09-23T15:55:40.453Z,39680
2018-09-23T15:56:40.444Z,6430
2018-09-23T15:57:40.504Z,3865
2018-09-23T15:58:40.616Z,3651
2018-09-23T16:17:39.741Z,1343
2018-09-23T16:18:40.091Z,988
2018-09-23T16:19:39.399Z,968
2018-09-23T16:20:40.259Z,1648
2018-09-23T16:21:40.344Z,1726
2018-09-23T16:22:40.398Z,1866
2018-09-23T16:23:40.741Z,1866
2018-09-23T16:25:41.012Z,1857
2018-09-23T16:27:40.947Z,1902
2018-09-23T16:28:40.855Z,1870
2018-09-23T16:29:40.831Z,1873
2018-09-23T16:31:40.858Z,1662
2018-09-23T16:32:41.004Z,1570
2018-09-23T16:33:41.032Z,1468
2018-09-23T16:34:41.104Z,1428
2018-09-23T16:35:41.043Z,1334
2018-09-23T16:36:41.245Z,1285
2018-09-23T16:38:41.290Z,1301
2018-09-23T16:40:41.409Z,1133
2018-09-23T16:41:41.450Z,1137
2018-09-23T16:42:41.623Z,1090
2018-09-23T16:43:41.735Z,1067
2018-09-23T16:44:41.741Z,1033
2018-09-23T16:45:41.782Z,1014
2018-09-23T16:46:41.763Z,1030
2018-09-23T16:47:41.828Z,929
2018-09-23T16:48:42.127Z,766